createdAt,value
2022-08-24T00:00:33.518Z,100400.75
2022-08-24T00:03:36.412Z,100404.34
2022-08-24T00:06:38.012Z,100401.97
2022-08-24T00:09:39.452Z,100403.91
2022-08-24T00:12:41.009Z,100394.62
2022-08-24T00:15:43.423Z,100395.50
2022-08-24T00:18:45.414Z,100392.66
2022-08-24T00:21:46.900Z,100391.81
2022-08-24T00:24:48.380Z,100389.44
2022-08-24T00:27:50.069Z,100398.31
2022-08-24T00:30:51.922Z,100399.16
2022-08-24T00:33:54.993Z,100399.28
2022-08-24T00:36:56.655Z,100394.06
2022-08-24T00:39:58.167Z,100398.91
2022-08-24T00:43:00.658Z,100394.69
2022-08-24T00:46:18.425Z,100399.44
2022-08-24T00:49:27.182Z,100399.34
2022-08-24T00:52:38.715Z,100396.75
2022-08-24T00:55:47.760Z,100397.81
2022-08-24T00:58:57.306Z,100396.06
2022-08-24T01:02:14.974Z,100392.72
2022-08-24T01:05:17.425Z,100391.28
2022-08-24T01:08:19.053Z,100379.28
2022-08-24T01:11:24.808Z,100396.13
2022-08-24T01:14:26.560Z,100389.97
2022-08-24T01:17:28.352Z,100397.31
2022-08-24T01:20:29.806Z,100402.13
2022-08-24T01:23:39.883Z,100394.56
2022-08-24T01:26:46.730Z,100397.94
2022-08-24T01:29:48.929Z,100393.69
2022-08-24T01:32:56.598Z,100400.06
2022-08-24T01:36:04.820Z,100408.25
2022-08-24T01:39:18.608Z,100417.41
2022-08-24T01:42:20.166Z,100423.00
2022-08-24T01:45:21.674Z,100428.69
2022-08-24T01:48:23.411Z,100425.31
2022-08-24T01:51:29.908Z,100428.09
2022-08-24T01:54:31.335Z,100427.63
2022-08-24T01:57:32.774Z,100431.94
2022-08-24T02:00:36.441Z,100426.28
2022-08-24T02:03:37.910Z,100427.16
2022-08-24T02:06:39.422Z,100424.91
2022-08-24T02:09:41.007Z,100432.91
2022-08-24T02:12:45.838Z,100431.19
2022-08-24T02:15:48.005Z,100425.78
2022-08-24T02:18:49.710Z,100428.78
2022-08-24T02:21:51.547Z,100435.06
2022-08-24T02:24:52.982Z,100442.06
2022-08-24T02:27:54.472Z,100441.09
2022-08-24T02:30:55.993Z,100442.53
2022-08-24T02:33:58.376Z,100437.25
2022-08-24T02:36:59.805Z,100438.72
2022-08-24T02:40:01.646Z,100438.81
2022-08-24T02:43:04.724Z,100439.88
2022-08-24T02:46:06.668Z,100433.91
2022-08-24T02:49:15.536Z,100438.59
2022-08-24T02:52:16.992Z,100436.13
2022-08-24T02:55:20.354Z,100439.38
2022-08-24T02:58:22.009Z,100441.88
2022-08-24T03:01:24.083Z,100424.56
2022-08-24T03:04:32.005Z,100435.25
2022-08-24T03:07:33.495Z,100418.69
2022-08-24T03:10:35.271Z,100430.06
2022-08-24T03:13:37.103Z,100427.56
2022-08-24T03:16:38.626Z,100440.25
2022-08-24T03:19:40.220Z,100441.31
2022-08-24T03:22:42.150Z,100435.91
2022-08-24T03:25:44.017Z,100438.25
2022-08-24T03:28:45.626Z,100437.37
2022-08-24T03:31:47.262Z,100445.56
2022-08-24T03:34:48.693Z,100441.03
2022-08-24T03:37:50.813Z,100442.88
2022-08-24T03:40:52.366Z,100442.78
2022-08-24T03:43:53.834Z,100443.81
2022-08-24T03:46:55.341Z,100452.00
2022-08-24T03:49:56.791Z,100442.88
2022-08-24T03:52:58.295Z,100445.47
2022-08-24T03:55:59.703Z,100457.31
2022-08-24T03:59:09.523Z,100457.81
2022-08-24T04:02:11.055Z,100455.66
2022-08-24T04:05:16.147Z,100459.22
2022-08-24T04:08:17.869Z,100452.88
2022-08-24T04:11:23.359Z,100452.88
2022-08-24T04:14:27.542Z,100454.78
2022-08-24T04:17:29.430Z,100455.66
2022-08-24T04:20:30.876Z,100447.88
2022-08-24T04:23:47.479Z,100441.72
2022-08-24T04:26:49.415Z,100442.97
2022-08-24T04:29:51.013Z,100456.53
2022-08-24T04:32:52.453Z,100455.47
2022-08-24T04:35:53.878Z,100452.50
2022-08-24T04:38:55.276Z,100447.56
2022-08-24T04:41:56.795Z,100453.44
2022-08-24T04:45:10.229Z,100447.19
2022-08-24T04:48:26.640Z,100458.25
2022-08-24T04:51:29.320Z,100454.31
2022-08-24T04:54:38.269Z,100448.91
2022-08-24T04:57:39.689Z,100431.84
2022-08-24T05:00:41.685Z,100445.91
2022-08-24T05:03:45.224Z,100445.53
2022-08-24T05:06:46.685Z,100452.38
2022-08-24T05:09:54.816Z,100452.75
2022-08-24T05:12:56.371Z,100453.87
2022-08-24T05:16:02.274Z,100442.38
2022-08-24T05:19:06.659Z,100434.16
2022-08-24T05:22:17.955Z,100455.50
2022-08-24T05:25:45.238Z,100449.50
2022-08-24T05:29:07.989Z,100392.63
2022-08-24T05:35:43.764Z,100449.53
2022-08-24T05:39:11.159Z,100452.72
2022-08-24T05:42:24.788Z,100453.66
2022-08-24T05:45:29.065Z,100456.03
2022-08-24T05:48:31.489Z,100458.19
2022-08-24T05:55:19.642Z,100452.62
2022-08-24T05:58:30.769Z,100447.66
2022-08-24T06:03:21.426Z,100391.62
2022-08-24T06:20:25.008Z,100396.19
2022-08-24T06:46:38.402Z,100402.28
2022-08-24T06:50:14.187Z,100469.34
2022-08-24T06:58:36.025Z,100472.44
2022-08-24T07:36:22.524Z,100507.97
2022-08-24T07:55:00.203Z,100517.25
2022-08-24T07:58:21.529Z,100516.56
2022-08-24T08:02:06.338Z,100519.09
2022-08-24T08:18:20.901Z,100531.13
2022-08-24T08:24:34.814Z,100516.88
2022-08-24T08:45:25.383Z,100537.06
2022-08-24T10:34:51.048Z,100501.78
2022-08-24T10:43:25.945Z,100498.78
2022-08-24T12:08:59.480Z,100482.53
2022-08-24T12:19:43.902Z,100463.16
2022-08-24T12:23:14.030Z,100465.47
2022-08-24T12:26:45.949Z,100535.81
2022-08-24T12:30:24.236Z,100480.97
2022-08-24T12:33:33.633Z,100474.47
2022-08-24T12:37:24.639Z,100532.09
2022-08-24T12:40:59.144Z,100465.44
2022-08-24T12:44:43.312Z,100473.63
2022-08-24T12:52:47.919Z,100471.34
2022-08-24T12:56:30.331Z,100531.34
2022-08-24T12:59:54.990Z,100532.44
2022-08-24T13:03:26.220Z,100470.34
2022-08-24T13:06:59.455Z,100513.97
2022-08-24T13:10:34.703Z,100526.66
2022-08-24T13:26:18.467Z,100510.75
2022-08-24T13:29:47.806Z,100525.59
2022-08-24T13:33:05.353Z,100468.69
2022-08-24T13:37:23.164Z,100526.06
2022-08-24T13:41:04.222Z,100544.38
2022-08-24T13:45:54.281Z,100471.88
2022-08-24T14:01:43.550Z,100549.22
2022-08-24T17:01:10.899Z,100520.16
2022-08-24T17:04:32.584Z,100514.13
2022-08-24T17:18:47.964Z,100530.84
2022-08-24T17:21:51.344Z,100536.03
2022-08-24T17:25:13.647Z,100469.91
2022-08-24T17:36:30.418Z,100533.41
2022-08-24T17:39:58.260Z,100434.38
2022-08-24T17:43:14.982Z,100490.75
2022-08-24T18:17:47.437Z,100591.38
2022-08-24T18:21:11.086Z,100598.00
2022-08-24T18:24:33.704Z,100595.03
2022-08-24T18:27:57.932Z,100595.50
2022-08-24T18:31:23.831Z,100603.75
2022-08-24T18:48:48.763Z,100604.75
2022-08-24T18:51:50.697Z,100509.81
2022-08-24T18:54:53.412Z,100620.28
2022-08-24T18:57:55.472Z,100596.69
2022-08-24T19:01:17.648Z,100609.66
2022-08-24T19:04:46.108Z,100550.53
2022-08-24T19:08:09.248Z,100622.72
2022-08-24T19:11:30.778Z,100604.88
2022-08-24T19:14:46.622Z,100606.06
2022-08-24T19:17:48.748Z,100627.44
2022-08-24T19:21:04.837Z,100612.91
2022-08-24T19:46:12.431Z,100623.69
2022-08-24T19:49:35.111Z,100621.19
2022-08-24T19:52:57.659Z,100605.63
2022-08-24T19:56:19.540Z,100640.75
2022-08-24T19:59:42.642Z,100639.75
2022-08-24T20:02:46.567Z,100638.91
2022-08-24T20:06:10.644Z,100632.06
2022-08-24T20:20:24.971Z,100636.28
2022-08-24T20:23:46.590Z,100639.22
2022-08-24T20:37:55.901Z,100637.13
2022-08-24T20:41:17.935Z,100638.88
2022-08-24T20:44:39.393Z,100641.06
2022-08-24T20:48:00.862Z,100639.31
2022-08-24T20:51:24.054Z,100620.34
2022-08-24T20:54:45.794Z,100630.88
2022-08-24T21:10:10.135Z,100635.72
2022-08-24T21:13:31.857Z,100627.41
2022-08-24T21:28:03.780Z,100643.53
2022-08-24T21:38:05.213Z,100652.06
2022-08-24T21:41:12.635Z,100662.59
2022-08-24T21:48:35.758Z,100649.69
2022-08-24T22:09:30.373Z,100644.63
2022-08-24T22:12:31.948Z,100645.94
2022-08-24T22:14:41.972Z,100619.06
2022-08-24T22:15:49.929Z,100643.78
2022-08-24T22:18:54.196Z,100579.19
2022-08-24T22:22:29.965Z,100654.03
2022-08-24T22:25:42.008Z,100660.31
2022-08-24T22:28:46.534Z,100594.72
2022-08-24T22:38:46.492Z,100653.91
2022-08-24T22:41:53.649Z,100610.34
2022-08-24T22:48:46.101Z,100635.94
2022-08-24T22:51:54.697Z,100639.63
2022-08-24T22:55:26.630Z,100638.75
2022-08-24T22:58:35.287Z,100628.91
2022-08-24T23:08:44.519Z,100620.91
2022-08-24T23:15:34.317Z,100616.56
2022-08-24T23:18:44.909Z,100621.00
2022-08-24T23:21:47.723Z,100600.63
2022-08-24T23:24:58.586Z,100603.81
2022-08-24T23:28:21.521Z,100606.59
2022-08-24T23:31:45.505Z,100603.91
2022-08-24T23:38:44.321Z,100513.47
2022-08-24T23:41:53.224Z,100601.59
2022-08-24T23:45:57.993Z,100551.03
2022-08-24T23:48:55.048Z,100548.75
2022-08-24T23:52:26.156Z,100586.13
2022-08-24T23:55:34.823Z,100583.97
2022-08-24T23:58:46.471Z,100574.12
